Timeline UpdatesTrip UpdatesNews PostsPvt PostsTravel TipsAdmin PostsConv PostsFollowed PostsChat RequestsBlog PostsPNR Posts

Disclaimer
Search
 
 
Fri Sep 19, 2014 21:23:58 ISTHomeTrainsΣChainsAtlasPNRForumGalleryNewsFAQTripsMembersLoginFeedback
No Recent News for this Train
Other Trains in the News **new
Latest...
.
Mon Sep 01, 2014 (10:05PM)
⇐ Return Journey: Train# 14673

14674/Shaheed Express

Time-Table HAS CHANGED.
Sep 01 (10:05PM)
Change Departure Station:
Change Arrival Station:
Post a Train Travel TipPost a Train Travel Tip **new
Post a Comment/Question/Picture/VideoPost a Comment/Question/Picture/Video
Pantry/Catering
✕ NO Pantry Car
✓ Catering Avbl
Loco/Rake Reversals
SPJ/Samastipur Junction (9);
RSA - Rake Sharing
has an RSA with 14649/50 saryuyamuna express... ; Author: prashantsoni43
Rake/Coach Composition
LOCO-SLR-GEN-GEN-GEN-GEN-GEN-GEN-AB1-B1-S1-S2-S3-S4-S5-S6-S7-GEN-GEN-SLR
Loco
ASR-DLI: GZB WAP-4/1 WAP-7 DLI-JYG: TKD/LKO WDM-3A / TKD WDP-4
News    PNR    Forum    Time-Table    Availability    Fare Chart    Map    Arr/Dep History    Trips    Gallery    ΣChains    X/O    Timeline    
Travel Time: 8h 18m    17 halts    Distance: 445 km    Avg Speed: 53 km/hr
Type: Mail/Express
Zone: NR/Northern
Departs @ 11:55
Platform# 1
S T TF 
Amritsar Junction/ASR 
Arrives @ 20:13
Platform# ???
S T TF 
Delhi Sabzi Mandi/SZM 

17 halts. 70 intermediate Stations between Amritsar Junction and Delhi Sabzi Mandi

Show ALL intermediate Stations  Show Old Time-Table

#CodeStation NameX/OArrivesAvgDepartsAvgHaltPFDay#KmSpeedElevZoneAddress
1ASRAmritsar Junction (5)»  -11:55-110.092233mNRAmritsar 143002, Punjab
2BEASBeas Junction (2)  12:23-12:25-2m2143.054238mNRBeas, Punjab
3JUCJalandhar City Junction (5)  13:05-13:10-5m2179.126239mNRJalandhar 144001, Punjab
4JRCJalandhar Cantt. Junction (3)  13:21-13:23-2m2184.065239mNRNear Rama Mandi, Punjab
5PGWPhagwara Junction (3)X  13:38-13:40-2m11100.375245mNRPhagwara, Punjab
6PHRPhillaur Junction (3)X  13:58-14:00-2m11122.852246mNRPhillaur, Punjab
7LDHLudhiana Junction (7)X  14:15-14:25-10m11135.937246mNRLudhiana 141001, Punjab
8DOADoraha (2)  15:00 15:01-15:02-2 1m21158.476261mNRDoraha, Punjab
9KNNKhanna (3)  15:17 15:18-15:19-2 1m21178.861269mNRNH 1, Punjab
10GVGMandi Gobindgarh (2)  15:27-15:29-2m11186.953268mNRMandi Gobindgarh, Punjab
11SIRSirhind Junction (3)X  15:40-15:42-2m21196.783271mNRSirhind, Punjab
12RPJRajpura Junction (3)X  15:59 16:00-16:01-2 1m21221.559272mNRNH-1, Punjab
13UBCAmbala City (3)XO  16:22-16:24-2m11242.013273mNRNH-1, Haryana
14UMBAmbala Cantt. Junction (7)X  17:00-17:10-10m21249.681278mNRAmbala 133001, Haryana
15KKDEKurukshetra Junction (3)X  17:47 17:41-17:49 17:43-2m31291.660260mNRKurukshetra, Haryana
16KUNKarnal (3)X  18:16-18:18-2m--1324.767253mNRKarnal, Haryana
17PNPPanipat Junction (5)  18:49-18:51-2m21359.180235mNRPanipat, Haryana
18SNPSonipat (3)  19:25-19:27-2m11404.353225mNRSonipat, Haryana
19SZMDelhi Sabzi Mandi (2)•  20:13-20:15-2m--1444.76220mNRGulabi Bagh, Delhi NCT
20DLIOld Delhi Junction (16)X20:45-21:15-30m121447.624219mNRNear Chandni Chowk Metro Station, Delhi NCT
21GZBGhaziabad Junction (6)  22:05-22:07-2m11467.767217mNRGhaziabad, Uttar Pradesh
22HPUHapur Junction (4)  22:45 22:40-22:48 22:45-3 5m--1504.470214mNRHapur Jn., Uttar Pradesh
23AMROAmroha (3)X  23:48-23:50-2m11577.946217mNRAmroha, Uttar Pradesh
24MBMoradabad Junction (7)X  00:35 00:30-00:45 00:40-10m32608.447201mNRMoradabad, Uttar Pradesh
25RMURampur Junction (3)X  01:15-01:17 01:20-2 5m--2635.769190mNRRampur, Uttar Pradesh
26BEBareilly Junction (4)XO  02:15-02:20-5m--2698.765174mNRBareilly, Uttar Pradesh
27SPNShahjahanpur Junction (3)X  03:25-03:30-5m--2769.262156mNRShahjahanpur, Uttar Pradesh
28LKOLucknow Charbagh NR (9)X  06:10-06:40-30m32934.140123mNR226004, Uttar Pradesh
29BBKBarabanki Junction (4)X  07:23-07:25-2m--2962.667122mNRPin-225001, Uttar Pradesh
30GDGonda Junction (3)X  08:45-08:55-10m221051.980110mNERGonda 271001, Uttar Pradesh
31MURMankapur Junction (5)  09:18 09:16-09:20 09:18-2m--21079.881104mNERDistrict Gonda, Uttar Pradesh
32BVBabhnan (2)X  09:44 09:40-09:46 09:42-2m--21109.656101mNERDistrict- Basti, Uttar Pradesh
33BSTBasti (4)  10:15-10:20-5m--21140.46890mNERBasti 272001, Uttar Pradesh
34KLDKhalilabad (3)X  10:43 10:46-10:45 10:48-2m221169.93086mNERKhalilabad- 272175, Uttar Pradesh
35GKPGorakhpur Junction (10)X  11:55-12:15-20m521203.85984mNERGorakhpur 273001, Uttar Pradesh
36DEOSDeoria Sadar (3)  12:58 13:05-13:00 13:10-2 5m--21253.06279mNERDeoria- 274001, Uttar Pradesh
37BTTBhatni Junction (5)X  13:25 13:30-13:30 13:35-5m--21273.78673mNERDeoria, Uttar Pradesh
38BHTRBhatpar Rani (2)X  13:41 13:44-13:43 13:46-2m--21286.64473mNERDeoria, Uttar Pradesh
39MWMairwa (2)  14:08 14:06-14:10 14:08-2m221301.23073mNERMairwa, Bihar
40SVSiwan Junction (4)X  14:50-14:55-5m--21322.43570mNERSiwan, Bihar
41CPRChhapra Junction (6)X  16:40-17:00-20m--21383.76458mNERDistt: Saran, Bihar
42SEESonpur Junction (4)X  17:54 17:51-17:59 17:56-5m--21437.73356mECRSaran, Bihar
43HJPHajipur Junction (3)  18:12 18:06-18:14 18:11-2 5m221443.24755mECR06224-272230, Bihar
44MFPMuzaffarpur Junction (6)X  19:25 19:20-19:35 19:25-10 5m321497.03157mECRMuzaffarpur, Bihar
45SPJSamastipur Junction (9)O21:05-21:35-30m--21549.25355mECRSamastipur, Bihar
46HYTHaiaghatXO  21:58 22:00-22:00 22:02-2m--21571.21951mECRDarbhanga, Bihar
47LSILaheria Sarai (1)X  22:25 22:35-22:30 22:40-5m121581.63052mECRDarbhanga, Bihar
48DBGDarbhanga Junction (5)X  22:40 22:50-22:50 23:00-10m121586.64854mECRDarbhanga, Bihar
49KKHTKakarghatti  23:04 23:08-23:06 23:10-2m--21593.06654mECRDarbhanga, Bihar
50TRSTarsarai  23:15 23:16-23:17 23:18-2m--21599.63354mECRDarbhanga, Bihar
51SKISakri Junction (5)  23:30-23:35-5m--21606.23955mECRMadhubani, Bihar
52PDWPandaul  23:47-23:49-2m--21614.02459mECRMadhubani, Bihar
53MBIMadhubani (3)X  00:16 00:12-00:18-2 6m--31623.14662mECRMadhubani, Bihar
54RJARajanagar  00:31-00:33-2m--31633.03765mECRRajnagar Distt: Madhubani, Bihar
55KJIKhajauli  00:48-00:50-2m--31642.31870mECRMadhubani, Bihar
56JYGJaynagar (3)  01:30--131654.3-68mECRDistt: Madhubani, Bihar
Scroll to Top
Scroll to Bottom